sensor_id;sensor_type;location;lat;lon;timestamp;temperature;humidity
7360;DHT22;3720;48.274;7.796;2023-02-24T00:01:14;7.50;99.90
7360;DHT22;3720;48.274;7.796;2023-02-24T00:03:55;7.50;99.90
7360;DHT22;3720;48.274;7.796;2023-02-24T00:06:28;7.60;99.90
7360;DHT22;3720;48.274;7.796;2023-02-24T00:09:07;7.50;99.90
7360;DHT22;3720;48.274;7.796;2023-02-24T00:11:41;7.30;99.90
7360;DHT22;3720;48.274;7.796;2023-02-24T00:14:15;7.30;99.90
7360;DHT22;3720;48.274;7.796;2023-02-24T00:16:48;7.30;99.90
7360;DHT22;3720;48.274;7.796;2023-02-24T00:19:22;7.30;99.90
7360;DHT22;3720;48.274;7.796;2023-02-24T00:21:54;7.50;99.90
7360;DHT22;3720;48.274;7.796;2023-02-24T00:24:26;7.40;99.90
7360;DHT22;3720;48.274;7.796;2023-02-24T00:27:00;7.30;99.90
7360;DHT22;3720;48.274;7.796;2023-02-24T00:29:34;7.30;99.90
7360;DHT22;3720;48.274;7.796;2023-02-24T00:32:07;7.30;99.90
7360;DHT22;3720;48.274;7.796;2023-02-24T00:34:41;7.20;99.90
7360;DHT22;3720;48.274;7.796;2023-02-24T00:37:13;7.10;99.90
7360;DHT22;3720;48.274;7.796;2023-02-24T00:39:46;7.10;99.90
7360;DHT22;3720;48.274;7.796;2023-02-24T00:42:17;7.10;99.90
7360;DHT22;3720;48.274;7.796;2023-02-24T00:44:51;7.10;99.90
7360;DHT22;3720;48.274;7.796;2023-02-24T00:47:24;7.10;99.90
7360;DHT22;3720;48.274;7.796;2023-02-24T00:49:56;7.20;99.90
7360;DHT22;3720;48.274;7.796;2023-02-24T00:52:28;7.20;99.90
7360;DHT22;3720;48.274;7.796;2023-02-24T00:55:00;7.20;99.90
7360;DHT22;3720;48.274;7.796;2023-02-24T00:57:32;7.20;99.90
7360;DHT22;3720;48.274;7.796;2023-02-24T01:00:07;7.30;99.90
7360;DHT22;3720;48.274;7.796;2023-02-24T01:02:43;7.30;99.90
7360;DHT22;3720;48.274;7.796;2023-02-24T01:05:15;7.40;99.90
7360;DHT22;3720;48.274;7.796;2023-02-24T01:07:47;7.40;99.90
7360;DHT22;3720;48.274;7.796;2023-02-24T01:10:19;7.50;99.90
7360;DHT22;3720;48.274;7.796;2023-02-24T01:12:52;7.50;99.90
7360;DHT22;3720;48.274;7.796;2023-02-24T01:15:25;7.50;99.90
7360;DHT22;3720;48.274;7.796;2023-02-24T01:17:57;7.50;99.90
7360;DHT22;3720;48.274;7.796;2023-02-24T01:20:29;7.50;99.90
7360;DHT22;3720;48.274;7.796;2023-02-24T01:23:02;7.50;99.90
7360;DHT22;3720;48.274;7.796;2023-02-24T01:25:34;7.50;99.90
7360;DHT22;3720;48.274;7.796;2023-02-24T01:28:06;7.50;99.90
7360;DHT22;3720;48.274;7.796;2023-02-24T01:30:42;7.50;99.90
7360;DHT22;3720;48.274;7.796;2023-02-24T01:33:13;7.50;99.90
7360;DHT22;3720;48.274;7.796;2023-02-24T01:35:45;7.50;99.90
7360;DHT22;3720;48.274;7.796;2023-02-24T01:38:17;7.40;99.90
7360;DHT22;3720;48.274;7.796;2023-02-24T01:40:56;7.40;99.90
7360;DHT22;3720;48.274;7.796;2023-02-24T01:43:28;7.40;99.90
7360;DHT22;3720;48.274;7.796;2023-02-24T01:46:01;7.40;99.90
7360;DHT22;3720;48.274;7.796;2023-02-24T01:48:33;7.40;99.90
7360;DHT22;3720;48.274;7.796;2023-02-24T01:51:05;7.40;99.90
7360;DHT22;3720;48.274;7.796;2023-02-24T01:53:37;7.40;99.90
7360;DHT22;3720;48.274;7.796;2023-02-24T01:56:09;7.50;99.90
7360;DHT22;3720;48.274;7.796;2023-02-24T01:58:43;7.40;99.90
7360;DHT22;3720;48.274;7.796;2023-02-24T02:01:16;7.40;99.90
7360;DHT22;3720;48.274;7.796;2023-02-24T02:03:50;7.50;99.90
7360;DHT22;3720;48.274;7.796;2023-02-24T02:06:25;7.50;99.90
7360;DHT22;3720;48.274;7.796;2023-02-24T02:08:58;7.50;99.90
7360;DHT22;3720;48.274;7.796;2023-02-24T02:11:31;7.50;99.90
7360;DHT22;3720;48.274;7.796;2023-02-24T02:14:03;7.50;99.90
7360;DHT22;3720;48.274;7.796;2023-02-24T02:16:55;7.50;99.90
7360;DHT22;3720;48.274;7.796;2023-02-24T02:23:14;7.60;99.90
7360;DHT22;3720;48.274;7.796;2023-02-24T02:26:07;7.60;99.90
7360;DHT22;3720;48.274;7.796;2023-02-24T02:29:06;7.70;99.90
7360;DHT22;3720;48.274;7.796;2023-02-24T02:34:51;7.80;99.90
7360;DHT22;3720;48.274;7.796;2023-02-24T02:37:30;7.80;99.90
7360;DHT22;3720;48.274;7.796;2023-02-24T02:40:08;7.80;99.90
7360;DHT22;3720;48.274;7.796;2023-02-24T02:42:55;7.80;99.90
7360;DHT22;3720;48.274;7.796;2023-02-24T02:45:32;7.90;99.90
7360;DHT22;3720;48.274;7.796;2023-02-24T02:48:15;7.90;99.90
7360;DHT22;3720;48.274;7.796;2023-02-24T02:50:52;7.90;99.90
7360;DHT22;3720;48.274;7.796;2023-02-24T02:53:29;7.90;99.90
7360;DHT22;3720;48.274;7.796;2023-02-24T02:56:08;7.90;99.90
7360;DHT22;3720;48.274;7.796;2023-02-24T02:58:46;7.90;99.90
7360;DHT22;3720;48.274;7.796;2023-02-24T03:01:21;7.90;99.90
7360;DHT22;3720;48.274;7.796;2023-02-24T03:03:57;7.80;99.90
7360;DHT22;3720;48.274;7.796;2023-02-24T03:06:34;7.90;99.90
7360;DHT22;3720;48.274;7.796;2023-02-24T03:09:09;7.90;99.90
7360;DHT22;3720;48.274;7.796;2023-02-24T03:11:48;7.80;99.90
7360;DHT22;3720;48.274;7.796;2023-02-24T03:14:26;7.70;99.90
7360;DHT22;3720;48.274;7.796;2023-02-24T03:16:59;7.80;99.90
7360;DHT22;3720;48.274;7.796;2023-02-24T03:19:37;7.80;99.90
7360;DHT22;3720;48.274;7.796;2023-02-24T03:22:14;7.90;99.90
7360;DHT22;3720;48.274;7.796;2023-02-24T03:24:48;7.80;99.90
7360;DHT22;3720;48.274;7.796;2023-02-24T03:27:24;7.80;99.90
7360;DHT22;3720;48.274;7.796;2023-02-24T03:30:00;7.80;99.90
7360;DHT22;3720;48.274;7.796;2023-02-24T03:32:38;7.80;99.90
7360;DHT22;3720;48.274;7.796;2023-02-24T03:35:16;7.80;99.90
7360;DHT22;3720;48.274;7.796;2023-02-24T03:37:52;7.80;99.90
7360;DHT22;3720;48.274;7.796;2023-02-24T03:40:25;7.80;99.90
7360;DHT22;3720;48.274;7.796;2023-02-24T03:43:02;7.80;99.90
7360;DHT22;3720;48.274;7.796;2023-02-24T03:45:37;7.70;99.90
7360;DHT22;3720;48.274;7.796;2023-02-24T03:48:11;7.80;99.90
7360;DHT22;3720;48.274;7.796;2023-02-24T03:50:44;7.80;99.90
7360;DHT22;3720;48.274;7.796;2023-02-24T03:53:29;7.80;99.90
7360;DHT22;3720;48.274;7.796;2023-02-24T03:56:12;7.90;99.90
7360;DHT22;3720;48.274;7.796;2023-02-24T03:58:59;7.90;99.90
7360;DHT22;3720;48.274;7.796;2023-02-24T04:01:39;8.00;99.90
7360;DHT22;3720;48.274;7.796;2023-02-24T04:04:17;8.00;99.90
7360;DHT22;3720;48.274;7.796;2023-02-24T04:06:54;8.10;99.90
7360;DHT22;3720;48.274;7.796;2023-02-24T04:09:37;8.10;99.90
7360;DHT22;3720;48.274;7.796;2023-02-24T04:12:15;8.10;99.90
7360;DHT22;3720;48.274;7.796;2023-02-24T04:14:53;8.10;99.90
7360;DHT22;3720;48.274;7.796;2023-02-24T04:17:30;8.10;99.90
7360;DHT22;3720;48.274;7.796;2023-02-24T04:20:06;8.10;99.90
7360;DHT22;3720;48.274;7.796;2023-02-24T04:22:45;8.20;99.90
7360;DHT22;3720;48.274;7.796;2023-02-24T04:25:23;8.20;99.90
7360;DHT22;3720;48.274;7.796;2023-02-24T04:27:58;8.20;99.90
7360;DHT22;3720;48.274;7.796;2023-02-24T04:30:37;8.20;99.90
7360;DHT22;3720;48.274;7.796;2023-02-24T04:33:11;8.20;99.90
7360;DHT22;3720;48.274;7.796;2023-02-24T04:35:44;8.20;99.90
7360;DHT22;3720;48.274;7.796;2023-02-24T04:38:16;8.20;99.90
7360;DHT22;3720;48.274;7.796;2023-02-24T04:40:50;8.10;99.90
7360;DHT22;3720;48.274;7.796;2023-02-24T04:43:22;8.20;99.90
7360;DHT22;3720;48.274;7.796;2023-02-24T04:45:54;8.10;99.90
7360;DHT22;3720;48.274;7.796;2023-02-24T04:48:26;8.10;99.90
7360;DHT22;3720;48.274;7.796;2023-02-24T04:50:59;8.10;99.90
7360;DHT22;3720;48.274;7.796;2023-02-24T04:53:33;8.10;99.90
7360;DHT22;3720;48.274;7.796;2023-02-24T04:56:08;8.00;99.90
7360;DHT22;3720;48.274;7.796;2023-02-24T04:58:40;8.00;99.90
7360;DHT22;3720;48.274;7.796;2023-02-24T05:01:15;8.00;99.90
7360;DHT22;3720;48.274;7.796;2023-02-24T05:03:47;7.90;99.90
7360;DHT22;3720;48.274;7.796;2023-02-24T05:06:19;7.90;99.90
7360;DHT22;3720;48.274;7.796;2023-02-24T05:08:51;7.90;99.90
7360;DHT22;3720;48.274;7.796;2023-02-24T05:11:24;7.90;99.90
7360;DHT22;3720;48.274;7.796;2023-02-24T05:13:57;7.90;99.90
7360;DHT22;3720;48.274;7.796;2023-02-24T05:16:29;7.90;99.90
7360;DHT22;3720;48.274;7.796;2023-02-24T05:19:01;8.00;99.90
7360;DHT22;3720;48.274;7.796;2023-02-24T05:22:02;7.90;99.90
7360;DHT22;3720;48.274;7.796;2023-02-24T05:24:36;8.00;99.90
7360;DHT22;3720;48.274;7.796;2023-02-24T05:27:11;8.00;99.90
7360;DHT22;3720;48.274;7.796;2023-02-24T05:29:45;8.00;99.90
7360;DHT22;3720;48.274;7.796;2023-02-24T05:32:18;8.00;99.90
7360;DHT22;3720;48.274;7.796;2023-02-24T05:34:50;8.00;99.90
7360;DHT22;3720;48.274;7.796;2023-02-24T05:37:22;8.00;99.90
7360;DHT22;3720;48.274;7.796;2023-02-24T05:39:54;8.10;99.90
7360;DHT22;3720;48.274;7.796;2023-02-24T05:42:30;8.10;99.90
7360;DHT22;3720;48.274;7.796;2023-02-24T05:45:05;8.10;99.90
7360;DHT22;3720;48.274;7.796;2023-02-24T05:47:37;8.10;99.90
7360;DHT22;3720;48.274;7.796;2023-02-24T05:50:11;8.10;99.90
7360;DHT22;3720;48.274;7.796;2023-02-24T05:52:43;8.10;99.90
7360;DHT22;3720;48.274;7.796;2023-02-24T05:55:15;8.10;99.90
7360;DHT22;3720;48.274;7.796;2023-02-24T05:57:48;8.10;99.90
7360;DHT22;3720;48.274;7.796;2023-02-24T06:00:22;8.10;99.90
7360;DHT22;3720;48.274;7.796;2023-02-24T06:02:55;8.10;99.90
7360;DHT22;3720;48.274;7.796;2023-02-24T06:05:37;8.20;99.90
7360;DHT22;3720;48.274;7.796;2023-02-24T06:08:12;8.20;99.90
7360;DHT22;3720;48.274;7.796;2023-02-24T06:10:43;8.20;99.90
7360;DHT22;3720;48.274;7.796;2023-02-24T06:13:18;8.20;99.90
7360;DHT22;3720;48.274;7.796;2023-02-24T06:15:54;8.20;99.90
7360;DHT22;3720;48.274;7.796;2023-02-24T06:18:26;8.20;99.90
7360;DHT22;3720;48.274;7.796;2023-02-24T06:21:00;8.30;99.90
7360;DHT22;3720;48.274;7.796;2023-02-24T06:23:32;8.20;99.90
7360;DHT22;3720;48.274;7.796;2023-02-24T06:26:05;8.20;99.90
7360;DHT22;3720;48.274;7.796;2023-02-24T06:28:44;8.20;99.90
7360;DHT22;3720;48.274;7.796;2023-02-24T06:31:17;8.20;99.90
7360;DHT22;3720;48.274;7.796;2023-02-24T06:33:50;8.20;99.90
7360;DHT22;3720;48.274;7.796;2023-02-24T06:36:22;8.30;99.90
7360;DHT22;3720;48.274;7.796;2023-02-24T06:38:54;8.30;99.90
7360;DHT22;3720;48.274;7.796;2023-02-24T06:41:26;8.30;99.90
7360;DHT22;3720;48.274;7.796;2023-02-24T06:44:00;8.40;99.90
7360;DHT22;3720;48.274;7.796;2023-02-24T06:46:33;8.50;99.90
7360;DHT22;3720;48.274;7.796;2023-02-24T06:49:05;8.50;99.90
7360;DHT22;3720;48.274;7.796;2023-02-24T06:51:39;8.50;99.90
7360;DHT22;3720;48.274;7.796;2023-02-24T06:54:12;8.50;99.90
7360;DHT22;3720;48.274;7.796;2023-02-24T06:56:45;8.40;99.90
7360;DHT22;3720;48.274;7.796;2023-02-24T06:59:18;8.30;99.90
7360;DHT22;3720;48.274;7.796;2023-02-24T07:01:52;8.30;99.90
7360;DHT22;3720;48.274;7.796;2023-02-24T07:04:24;8.30;99.90
7360;DHT22;3720;48.274;7.796;2023-02-24T07:06:59;8.30;99.90
7360;DHT22;3720;48.274;7.796;2023-02-24T07:09:32;8.40;99.90
7360;DHT22;3720;48.274;7.796;2023-02-24T07:12:05;8.40;99.90
7360;DHT22;3720;48.274;7.796;2023-02-24T07:14:39;8.50;99.90
7360;DHT22;3720;48.274;7.796;2023-02-24T07:17:11;8.40;99.90
7360;DHT22;3720;48.274;7.796;2023-02-24T07:19:44;8.40;99.90
7360;DHT22;3720;48.274;7.796;2023-02-24T07:22:16;8.30;99.90
7360;DHT22;3720;48.274;7.796;2023-02-24T07:24:54;8.30;99.90
7360;DHT22;3720;48.274;7.796;2023-02-24T07:27:29;8.20;99.90
7360;DHT22;3720;48.274;7.796;2023-02-24T07:30:03;8.20;99.90
7360;DHT22;3720;48.274;7.796;2023-02-24T07:32:39;8.20;99.90
7360;DHT22;3720;48.274;7.796;2023-02-24T07:35:12;8.20;99.90
7360;DHT22;3720;48.274;7.796;2023-02-24T07:37:44;8.20;99.90
7360;DHT22;3720;48.274;7.796;2023-02-24T07:40:18;8.20;99.90
7360;DHT22;3720;48.274;7.796;2023-02-24T07:42:52;8.20;99.90
7360;DHT22;3720;48.274;7.796;2023-02-24T07:45:26;8.20;99.90
7360;DHT22;3720;48.274;7.796;2023-02-24T07:47:59;8.20;99.90
7360;DHT22;3720;48.274;7.796;2023-02-24T07:50:32;8.20;99.90
7360;DHT22;3720;48.274;7.796;2023-02-24T07:53:04;8.20;99.90
7360;DHT22;3720;48.274;7.796;2023-02-24T07:55:37;8.20;99.90
7360;DHT22;3720;48.274;7.796;2023-02-24T07:58:09;8.20;99.90
7360;DHT22;3720;48.274;7.796;2023-02-24T08:00:42;8.20;99.90
7360;DHT22;3720;48.274;7.796;2023-02-24T08:03:28;8.30;99.90
7360;DHT22;3720;48.274;7.796;2023-02-24T08:06:00;8.30;99.90
7360;DHT22;3720;48.274;7.796;2023-02-24T08:08:45;8.30;99.90
7360;DHT22;3720;48.274;7.796;2023-02-24T08:11:30;8.40;99.90
7360;DHT22;3720;48.274;7.796;2023-02-24T08:14:05;8.50;99.90
7360;DHT22;3720;48.274;7.796;2023-02-24T08:16:46;8.50;99.90
7360;DHT22;3720;48.274;7.796;2023-02-24T08:19:20;8.50;99.90
7360;DHT22;3720;48.274;7.796;2023-02-24T08:21:52;8.60;99.90
7360;DHT22;3720;48.274;7.796;2023-02-24T08:24:25;8.60;99.90
7360;DHT22;3720;48.274;7.796;2023-02-24T08:26:59;8.60;99.90
7360;DHT22;3720;48.274;7.796;2023-02-24T08:29:36;8.70;99.90
7360;DHT22;3720;48.274;7.796;2023-02-24T08:32:11;8.70;99.90
7360;DHT22;3720;48.274;7.796;2023-02-24T08:34:47;8.70;99.90
7360;DHT22;3720;48.274;7.796;2023-02-24T08:37:19;8.70;99.90
7360;DHT22;3720;48.274;7.796;2023-02-24T08:39:50;8.70;99.90
7360;DHT22;3720;48.274;7.796;2023-02-24T08:42:26;8.70;99.90
7360;DHT22;3720;48.274;7.796;2023-02-24T08:45:05;8.60;99.90
7360;DHT22;3720;48.274;7.796;2023-02-24T08:47:38;8.60;99.90
7360;DHT22;3720;48.274;7.796;2023-02-24T08:50:11;8.70;99.90
7360;DHT22;3720;48.274;7.796;2023-02-24T08:52:43;8.80;99.90
7360;DHT22;3720;48.274;7.796;2023-02-24T08:55:15;8.80;99.90
7360;DHT22;3720;48.274;7.796;2023-02-24T08:57:52;8.80;99.90
7360;DHT22;3720;48.274;7.796;2023-02-24T09:00:25;8.90;99.90
7360;DHT22;3720;48.274;7.796;2023-02-24T09:03:21;8.90;99.90
7360;DHT22;3720;48.274;7.796;2023-02-24T09:06:02;9.00;99.90
7360;DHT22;3720;48.274;7.796;2023-02-24T09:08:37;9.10;99.90
7360;DHT22;3720;48.274;7.796;2023-02-24T09:11:11;9.20;99.90
7360;DHT22;3720;48.274;7.796;2023-02-24T09:13:45;9.20;99.90
7360;DHT22;3720;48.274;7.796;2023-02-24T09:16:27;9.30;99.90
7360;DHT22;3720;48.274;7.796;2023-02-24T09:19:00;9.40;99.90
7360;DHT22;3720;48.274;7.796;2023-02-24T09:22:09;9.40;99.90
7360;DHT22;3720;48.274;7.796;2023-02-24T09:24:44;9.40;99.90
7360;DHT22;3720;48.274;7.796;2023-02-24T09:27:18;9.40;99.90
7360;DHT22;3720;48.274;7.796;2023-02-24T09:29:50;9.50;99.90
7360;DHT22;3720;48.274;7.796;2023-02-24T09:32:22;9.50;99.90
7360;DHT22;3720;48.274;7.796;2023-02-24T09:34:58;9.50;99.90
7360;DHT22;3720;48.274;7.796;2023-02-24T09:37:30;9.50;99.90
7360;DHT22;3720;48.274;7.796;2023-02-24T09:40:03;9.50;99.90
7360;DHT22;3720;48.274;7.796;2023-02-24T09:43:11;9.50;99.90
7360;DHT22;3720;48.274;7.796;2023-02-24T09:45:58;9.50;99.90
7360;DHT22;3720;48.274;7.796;2023-02-24T09:48:37;9.50;99.90
7360;DHT22;3720;48.274;7.796;2023-02-24T09:51:16;9.60;99.90
7360;DHT22;3720;48.274;7.796;2023-02-24T09:53:53;9.60;99.90
7360;DHT22;3720;48.274;7.796;2023-02-24T09:56:30;9.60;99.90
7360;DHT22;3720;48.274;7.796;2023-02-24T09:59:12;9.60;99.90
7360;DHT22;3720;48.274;7.796;2023-02-24T10:02:00;9.70;99.90
7360;DHT22;3720;48.274;7.796;2023-02-24T10:04:47;9.80;99.90
7360;DHT22;3720;48.274;7.796;2023-02-24T10:07:28;9.80;99.90
7360;DHT22;3720;48.274;7.796;2023-02-24T10:10:13;9.80;99.90
7360;DHT22;3720;48.274;7.796;2023-02-24T10:12:51;9.80;99.90
7360;DHT22;3720;48.274;7.796;2023-02-24T10:15:31;9.80;99.90
7360;DHT22;3720;48.274;7.796;2023-02-24T10:18:31;9.80;99.90
7360;DHT22;3720;48.274;7.796;2023-02-24T10:21:11;9.90;99.90
7360;DHT22;3720;48.274;7.796;2023-02-24T10:23:55;10.00;99.90
7360;DHT22;3720;48.274;7.796;2023-02-24T10:26:36;10.10;99.90
7360;DHT22;3720;48.274;7.796;2023-02-24T10:29:21;10.10;99.90
7360;DHT22;3720;48.274;7.796;2023-02-24T10:32:06;10.10;99.90
7360;DHT22;3720;48.274;7.796;2023-02-24T10:34:46;10.10;99.90
7360;DHT22;3720;48.274;7.796;2023-02-24T10:37:20;10.10;99.90
7360;DHT22;3720;48.274;7.796;2023-02-24T10:39:57;10.20;99.90
7360;DHT22;3720;48.274;7.796;2023-02-24T10:42:31;10.30;99.90
7360;DHT22;3720;48.274;7.796;2023-02-24T10:45:11;10.30;99.90
7360;DHT22;3720;48.274;7.796;2023-02-24T10:47:49;10.20;99.90
7360;DHT22;3720;48.274;7.796;2023-02-24T10:50:27;10.20;99.90
7360;DHT22;3720;48.274;7.796;2023-02-24T10:53:05;10.20;99.90
7360;DHT22;3720;48.274;7.796;2023-02-24T10:55:58;10.20;99.90
7360;DHT22;3720;48.274;7.796;2023-02-24T10:59:02;10.20;99.90
7360;DHT22;3720;48.274;7.796;2023-02-24T11:01:53;10.30;99.90
7360;DHT22;3720;48.274;7.796;2023-02-24T11:04:32;10.40;99.90
7360;DHT22;3720;48.274;7.796;2023-02-24T11:07:14;10.40;99.90
7360;DHT22;3720;48.274;7.796;2023-02-24T11:10:07;10.40;99.90
7360;DHT22;3720;48.274;7.796;2023-02-24T11:12:44;10.50;99.90
7360;DHT22;3720;48.274;7.796;2023-02-24T11:15:36;10.50;99.90
7360;DHT22;3720;48.274;7.796;2023-02-24T11:18:27;10.50;99.90
7360;DHT22;3720;48.274;7.796;2023-02-24T11:21:02;10.60;99.90
7360;DHT22;3720;48.274;7.796;2023-02-24T11:23:38;10.60;99.90
7360;DHT22;3720;48.274;7.796;2023-02-24T11:26:14;10.60;99.90
7360;DHT22;3720;48.274;7.796;2023-02-24T11:29:00;10.60;99.90
7360;DHT22;3720;48.274;7.796;2023-02-24T11:31:51;10.70;99.90
7360;DHT22;3720;48.274;7.796;2023-02-24T11:34:32;10.70;99.90
7360;DHT22;3720;48.274;7.796;2023-02-24T11:37:17;10.70;99.90
7360;DHT22;3720;48.274;7.796;2023-02-24T11:39:55;10.80;99.90
7360;DHT22;3720;48.274;7.796;2023-02-24T11:42:34;10.90;99.90
7360;DHT22;3720;48.274;7.796;2023-02-24T11:45:14;10.90;99.90
7360;DHT22;3720;48.274;7.796;2023-02-24T11:47:57;11.10;99.90
7360;DHT22;3720;48.274;7.796;2023-02-24T11:50:40;11.20;99.90
7360;DHT22;3720;48.274;7.796;2023-02-24T11:53:21;11.40;99.90
7360;DHT22;3720;48.274;7.796;2023-02-24T11:56:00;11.70;99.90
7360;DHT22;3720;48.274;7.796;2023-02-24T11:58:41;12.00;99.90
7360;DHT22;3720;48.274;7.796;2023-02-24T12:01:19;12.10;99.90
7360;DHT22;3720;48.274;7.796;2023-02-24T12:04:02;12.10;99.90
7360;DHT22;3720;48.274;7.796;2023-02-24T12:06:40;12.20;99.90
7360;DHT22;3720;48.274;7.796;2023-02-24T12:09:17;12.50;99.90
7360;DHT22;3720;48.274;7.796;2023-02-24T12:11:54;12.70;99.90
7360;DHT22;3720;48.274;7.796;2023-02-24T12:14:32;12.80;99.90
7360;DHT22;3720;48.274;7.796;2023-02-24T12:17:17;12.90;99.90
7360;DHT22;3720;48.274;7.796;2023-02-24T12:19:59;13.00;99.90
7360;DHT22;3720;48.274;7.796;2023-02-24T12:22:42;13.00;99.90
7360;DHT22;3720;48.274;7.796;2023-02-24T12:25:18;13.10;99.90
7360;DHT22;3720;48.274;7.796;2023-02-24T12:28:04;13.00;99.90
7360;DHT22;3720;48.274;7.796;2023-02-24T12:30:51;12.90;99.90
7360;DHT22;3720;48.274;7.796;2023-02-24T12:33:41;12.90;99.90
7360;DHT22;3720;48.274;7.796;2023-02-24T12:36:26;12.80;99.90
7360;DHT22;3720;48.274;7.796;2023-02-24T12:39:07;12.70;99.90
7360;DHT22;3720;48.274;7.796;2023-02-24T12:41:52;12.60;99.90
7360;DHT22;3720;48.274;7.796;2023-02-24T12:44:33;12.60;99.90
7360;DHT22;3720;48.274;7.796;2023-02-24T12:47:10;12.60;99.90
7360;DHT22;3720;48.274;7.796;2023-02-24T12:50:03;12.50;99.90
7360;DHT22;3720;48.274;7.796;2023-02-24T12:52:51;12.40;99.90
7360;DHT22;3720;48.274;7.796;2023-02-24T12:55:27;12.30;99.90
7360;DHT22;3720;48.274;7.796;2023-02-24T12:58:07;12.30;99.90
7360;DHT22;3720;48.274;7.796;2023-02-24T13:00:51;12.40;99.90
7360;DHT22;3720;48.274;7.796;2023-02-24T13:03:38;12.50;99.90
7360;DHT22;3720;48.274;7.796;2023-02-24T13:06:17;12.50;99.90
7360;DHT22;3720;48.274;7.796;2023-02-24T13:08:59;12.50;99.90
7360;DHT22;3720;48.274;7.796;2023-02-24T13:11:39;12.50;99.90
7360;DHT22;3720;48.274;7.796;2023-02-24T13:14:20;12.50;99.90
7360;DHT22;3720;48.274;7.796;2023-02-24T13:17:14;12.40;99.90
7360;DHT22;3720;48.274;7.796;2023-02-24T13:19:49;12.50;99.90
7360;DHT22;3720;48.274;7.796;2023-02-24T13:22:26;12.50;99.90
7360;DHT22;3720;48.274;7.796;2023-02-24T13:25:13;12.50;99.90
7360;DHT22;3720;48.274;7.796;2023-02-24T13:27:57;12.40;99.90
7360;DHT22;3720;48.274;7.796;2023-02-24T13:30:36;12.40;99.90
7360;DHT22;3720;48.274;7.796;2023-02-24T13:33:26;12.30;99.90
7360;DHT22;3720;48.274;7.796;2023-02-24T13:36:14;12.40;99.90
7360;DHT22;3720;48.274;7.796;2023-02-24T13:38:48;12.30;99.90
7360;DHT22;3720;48.274;7.796;2023-02-24T13:41:37;12.30;99.90
7360;DHT22;3720;48.274;7.796;2023-02-24T13:44:28;12.30;99.90
7360;DHT22;3720;48.274;7.796;2023-02-24T13:47:24;12.20;99.90
7360;DHT22;3720;48.274;7.796;2023-02-24T13:50:16;12.20;99.90
7360;DHT22;3720;48.274;7.796;2023-02-24T13:53:04;12.30;99.90
7360;DHT22;3720;48.274;7.796;2023-02-24T13:55:51;12.30;99.90
7360;DHT22;3720;48.274;7.796;2023-02-24T13:58:48;12.40;99.90
7360;DHT22;3720;48.274;7.796;2023-02-24T14:01:25;12.30;99.90
7360;DHT22;3720;48.274;7.796;2023-02-24T14:04:12;12.30;99.90
7360;DHT22;3720;48.274;7.796;2023-02-24T14:06:47;12.30;99.90
7360;DHT22;3720;48.274;7.796;2023-02-24T14:09:24;12.30;99.90
7360;DHT22;3720;48.274;7.796;2023-02-24T14:11:59;12.40;99.90
7360;DHT22;3720;48.274;7.796;2023-02-24T14:14:33;12.30;99.90
7360;DHT22;3720;48.274;7.796;2023-02-24T14:17:05;12.30;99.90
7360;DHT22;3720;48.274;7.796;2023-02-24T14:19:49;12.30;99.90
7360;DHT22;3720;48.274;7.796;2023-02-24T14:22:22;12.30;99.90
7360;DHT22;3720;48.274;7.796;2023-02-24T14:25:00;12.30;99.90
7360;DHT22;3720;48.274;7.796;2023-02-24T14:27:33;12.40;99.90
7360;DHT22;3720;48.274;7.796;2023-02-24T14:30:21;12.50;99.90
7360;DHT22;3720;48.274;7.796;2023-02-24T14:32:54;12.60;99.90
7360;DHT22;3720;48.274;7.796;2023-02-24T14:35:32;12.60;99.90
7360;DHT22;3720;48.274;7.796;2023-02-24T14:38:05;12.70;99.90
7360;DHT22;3720;48.274;7.796;2023-02-24T14:40:46;12.90;99.90
7360;DHT22;3720;48.274;7.796;2023-02-24T14:43:18;13.00;99.90
7360;DHT22;3720;48.274;7.796;2023-02-24T14:45:52;13.00;99.90
7360;DHT22;3720;48.274;7.796;2023-02-24T14:48:27;13.20;99.90
7360;DHT22;3720;48.274;7.796;2023-02-24T14:51:01;13.40;99.90
7360;DHT22;3720;48.274;7.796;2023-02-24T14:53:37;13.70;99.90
7360;DHT22;3720;48.274;7.796;2023-02-24T14:56:13;14.00;99.90
7360;DHT22;3720;48.274;7.796;2023-02-24T14:58:49;14.00;99.90
7360;DHT22;3720;48.274;7.796;2023-02-24T15:01:28;14.10;99.90
7360;DHT22;3720;48.274;7.796;2023-02-24T15:04:10;14.10;99.90
7360;DHT22;3720;48.274;7.796;2023-02-24T15:06:43;14.10;99.90
7360;DHT22;3720;48.274;7.796;2023-02-24T15:09:17;13.90;99.90
7360;DHT22;3720;48.274;7.796;2023-02-24T15:11:53;13.90;99.90
7360;DHT22;3720;48.274;7.796;2023-02-24T15:14:28;13.80;99.90
7360;DHT22;3720;48.274;7.796;2023-02-24T15:17:08;13.80;99.90
7360;DHT22;3720;48.274;7.796;2023-02-24T15:19:42;13.70;99.90
7360;DHT22;3720;48.274;7.796;2023-02-24T15:22:23;13.60;99.90
7360;DHT22;3720;48.274;7.796;2023-02-24T15:25:11;13.60;99.90
7360;DHT22;3720;48.274;7.796;2023-02-24T15:27:49;13.50;99.90
7360;DHT22;3720;48.274;7.796;2023-02-24T15:30:28;13.40;99.90
7360;DHT22;3720;48.274;7.796;2023-02-24T15:33:05;13.30;99.90
7360;DHT22;3720;48.274;7.796;2023-02-24T15:35:46;13.30;99.90
7360;DHT22;3720;48.274;7.796;2023-02-24T15:38:22;13.30;99.90
7360;DHT22;3720;48.274;7.796;2023-02-24T15:40:58;13.30;99.90
7360;DHT22;3720;48.274;7.796;2023-02-24T15:43:32;13.30;99.90
7360;DHT22;3720;48.274;7.796;2023-02-24T15:46:29;13.40;99.90
7360;DHT22;3720;48.274;7.796;2023-02-24T15:49:04;13.40;99.90
7360;DHT22;3720;48.274;7.796;2023-02-24T15:51:38;13.40;99.90
7360;DHT22;3720;48.274;7.796;2023-02-24T15:54:14;13.40;99.90
7360;DHT22;3720;48.274;7.796;2023-02-24T15:56:47;13.40;99.90
7360;DHT22;3720;48.274;7.796;2023-02-24T15:59:19;13.30;99.90
7360;DHT22;3720;48.274;7.796;2023-02-24T16:01:51;13.20;99.90
7360;DHT22;3720;48.274;7.796;2023-02-24T16:04:25;13.00;99.90
7360;DHT22;3720;48.274;7.796;2023-02-24T16:06:57;13.00;99.90
7360;DHT22;3720;48.274;7.796;2023-02-24T16:09:32;12.80;99.90
7360;DHT22;3720;48.274;7.796;2023-02-24T16:12:09;12.80;99.90
7360;DHT22;3720;48.274;7.796;2023-02-24T16:14:43;12.70;99.90
7360;DHT22;3720;48.274;7.796;2023-02-24T16:17:24;12.70;99.90
7360;DHT22;3720;48.274;7.796;2023-02-24T16:20:00;12.70;99.90
7360;DHT22;3720;48.274;7.796;2023-02-24T16:22:37;12.70;99.90
7360;DHT22;3720;48.274;7.796;2023-02-24T16:25:13;12.70;99.90
7360;DHT22;3720;48.274;7.796;2023-02-24T16:27:46;12.60;99.90
7360;DHT22;3720;48.274;7.796;2023-02-24T16:30:19;12.60;99.90
7360;DHT22;3720;48.274;7.796;2023-02-24T16:32:51;12.60;99.90
7360;DHT22;3720;48.274;7.796;2023-02-24T16:35:26;12.60;99.90
7360;DHT22;3720;48.274;7.796;2023-02-24T16:37:59;12.50;99.90
7360;DHT22;3720;48.274;7.796;2023-02-24T16:40:33;12.50;99.90
7360;DHT22;3720;48.274;7.796;2023-02-24T16:43:07;12.50;99.90
7360;DHT22;3720;48.274;7.796;2023-02-24T16:45:40;12.50;99.90
7360;DHT22;3720;48.274;7.796;2023-02-24T16:48:17;12.40;99.90
7360;DHT22;3720;48.274;7.796;2023-02-24T16:50:51;12.30;99.90
7360;DHT22;3720;48.274;7.796;2023-02-24T16:53:23;12.30;99.90
7360;DHT22;3720;48.274;7.796;2023-02-24T16:55:55;12.30;99.90
7360;DHT22;3720;48.274;7.796;2023-02-24T16:58:27;12.20;99.90
7360;DHT22;3720;48.274;7.796;2023-02-24T17:01:00;12.10;99.90
7360;DHT22;3720;48.274;7.796;2023-02-24T17:03:40;12.20;99.90
7360;DHT22;3720;48.274;7.796;2023-02-24T17:06:14;12.10;99.90
7360;DHT22;3720;48.274;7.796;2023-02-24T17:08:46;12.10;99.90
7360;DHT22;3720;48.274;7.796;2023-02-24T17:11:19;12.10;99.90
7360;DHT22;3720;48.274;7.796;2023-02-24T17:13:51;12.00;99.90
7360;DHT22;3720;48.274;7.796;2023-02-24T17:16:23;12.00;99.90
7360;DHT22;3720;48.274;7.796;2023-02-24T17:18:55;11.90;99.90
7360;DHT22;3720;48.274;7.796;2023-02-24T17:21:28;11.90;99.90
7360;DHT22;3720;48.274;7.796;2023-02-24T17:24:00;11.80;99.90